sensor_id;sensor_type;location;lat;lon;timestamp;temperature;humidity
14531;DHT22;7352;50.866;4.366;2022-09-09T00:00:23;17.60;99.90
14531;DHT22;7352;50.866;4.366;2022-09-09T00:02:57;17.50;99.90
14531;DHT22;7352;50.866;4.366;2022-09-09T00:05:33;17.60;99.90
14531;DHT22;7352;50.866;4.366;2022-09-09T00:08:13;17.50;99.90
14531;DHT22;7352;50.866;4.366;2022-09-09T00:10:43;17.70;99.90
14531;DHT22;7352;50.866;4.366;2022-09-09T00:13:19;17.60;99.90
14531;DHT22;7352;50.866;4.366;2022-09-09T00:15:57;17.50;99.90
14531;DHT22;7352;50.866;4.366;2022-09-09T00:18:30;17.40;99.90
14531;DHT22;7352;50.866;4.366;2022-09-09T00:21:04;17.40;99.90
14531;DHT22;7352;50.866;4.366;2022-09-09T00:23:35;17.40;99.90
14531;DHT22;7352;50.866;4.366;2022-09-09T00:26:09;17.30;99.90
14531;DHT22;7352;50.866;4.366;2022-09-09T00:28:45;17.30;99.90
14531;DHT22;7352;50.866;4.366;2022-09-09T00:31:16;17.50;99.90
14531;DHT22;7352;50.866;4.366;2022-09-09T00:33:46;17.40;99.90
14531;DHT22;7352;50.866;4.366;2022-09-09T00:36:20;17.30;99.90
14531;DHT22;7352;50.866;4.366;2022-09-09T00:38:51;17.30;99.90
14531;DHT22;7352;50.866;4.366;2022-09-09T00:41:25;17.40;99.90
14531;DHT22;7352;50.866;4.366;2022-09-09T00:44:02;17.50;99.90
14531;DHT22;7352;50.866;4.366;2022-09-09T00:46:53;17.60;99.90
14531;DHT22;7352;50.866;4.366;2022-09-09T00:49:30;17.60;99.90
14531;DHT22;7352;50.866;4.366;2022-09-09T00:52:12;17.70;99.90
14531;DHT22;7352;50.866;4.366;2022-09-09T00:54:49;17.60;99.90
14531;DHT22;7352;50.866;4.366;2022-09-09T00:57:25;17.60;99.90
14531;DHT22;7352;50.866;4.366;2022-09-09T01:02:53;17.60;99.90
14531;DHT22;7352;50.866;4.366;2022-09-09T01:05:27;17.60;99.90
14531;DHT22;7352;50.866;4.366;2022-09-09T01:07:58;17.50;99.90
14531;DHT22;7352;50.866;4.366;2022-09-09T01:10:37;17.50;99.90
14531;DHT22;7352;50.866;4.366;2022-09-09T01:13:13;17.60;99.90
14531;DHT22;7352;50.866;4.366;2022-09-09T01:15:44;17.60;99.90
14531;DHT22;7352;50.866;4.366;2022-09-09T01:18:15;17.70;99.90
14531;DHT22;7352;50.866;4.366;2022-09-09T01:20:49;17.80;99.90
14531;DHT22;7352;50.866;4.366;2022-09-09T01:23:38;17.70;99.90
14531;DHT22;7352;50.866;4.366;2022-09-09T01:26:19;17.80;99.90
14531;DHT22;7352;50.866;4.366;2022-09-09T01:28:49;17.70;99.90
14531;DHT22;7352;50.866;4.366;2022-09-09T01:31:20;17.60;99.90
14531;DHT22;7352;50.866;4.366;2022-09-09T01:33:48;17.60;99.90
14531;DHT22;7352;50.866;4.366;2022-09-09T01:36:22;17.60;99.90
14531;DHT22;7352;50.866;4.366;2022-09-09T01:38:51;17.50;99.90
14531;DHT22;7352;50.866;4.366;2022-09-09T01:41:20;17.50;99.90
14531;DHT22;7352;50.866;4.366;2022-09-09T01:43:48;17.40;99.90
14531;DHT22;7352;50.866;4.366;2022-09-09T01:46:16;17.60;99.90
14531;DHT22;7352;50.866;4.366;2022-09-09T01:48:45;17.60;99.90
14531;DHT22;7352;50.866;4.366;2022-09-09T01:51:12;17.60;99.90
14531;DHT22;7352;50.866;4.366;2022-09-09T01:53:41;17.50;99.90
14531;DHT22;7352;50.866;4.366;2022-09-09T01:56:21;17.60;99.90
14531;DHT22;7352;50.866;4.366;2022-09-09T01:59:04;17.50;99.90
14531;DHT22;7352;50.866;4.366;2022-09-09T02:01:43;17.50;99.90
14531;DHT22;7352;50.866;4.366;2022-09-09T02:04:22;17.40;99.90
14531;DHT22;7352;50.866;4.366;2022-09-09T02:06:54;17.40;99.90
14531;DHT22;7352;50.866;4.366;2022-09-09T02:09:24;17.40;99.90
14531;DHT22;7352;50.866;4.366;2022-09-09T02:11:57;17.40;99.90
14531;DHT22;7352;50.866;4.366;2022-09-09T02:14:30;17.40;99.90
14531;DHT22;7352;50.866;4.366;2022-09-09T02:17:03;17.40;99.90
14531;DHT22;7352;50.866;4.366;2022-09-09T02:19:33;17.40;99.90
14531;DHT22;7352;50.866;4.366;2022-09-09T02:22:01;17.40;99.90
14531;DHT22;7352;50.866;4.366;2022-09-09T02:24:32;17.50;99.90
14531;DHT22;7352;50.866;4.366;2022-09-09T02:27:03;17.50;99.90
14531;DHT22;7352;50.866;4.366;2022-09-09T02:29:35;17.60;99.90
14531;DHT22;7352;50.866;4.366;2022-09-09T02:32:06;17.60;99.90
14531;DHT22;7352;50.866;4.366;2022-09-09T02:34:37;17.50;99.90
14531;DHT22;7352;50.866;4.366;2022-09-09T02:37:08;17.60;99.90
14531;DHT22;7352;50.866;4.366;2022-09-09T02:39:36;17.50;99.90
14531;DHT22;7352;50.866;4.366;2022-09-09T02:42:04;17.40;99.90
14531;DHT22;7352;50.866;4.366;2022-09-09T02:44:35;17.40;99.90
14531;DHT22;7352;50.866;4.366;2022-09-09T02:50:02;17.50;99.90
14531;DHT22;7352;50.866;4.366;2022-09-09T02:52:38;17.40;99.90
14531;DHT22;7352;50.866;4.366;2022-09-09T02:55:14;17.40;99.90
14531;DHT22;7352;50.866;4.366;2022-09-09T02:57:45;17.40;99.90
14531;DHT22;7352;50.866;4.366;2022-09-09T03:00:15;17.40;99.90
14531;DHT22;7352;50.866;4.366;2022-09-09T03:02:42;17.30;99.90
14531;DHT22;7352;50.866;4.366;2022-09-09T03:05:10;17.30;99.90
14531;DHT22;7352;50.866;4.366;2022-09-09T03:07:38;17.40;99.90
14531;DHT22;7352;50.866;4.366;2022-09-09T03:10:07;17.30;99.90
14531;DHT22;7352;50.866;4.366;2022-09-09T03:12:36;17.30;99.90
14531;DHT22;7352;50.866;4.366;2022-09-09T03:15:05;17.30;99.90
14531;DHT22;7352;50.866;4.366;2022-09-09T03:17:33;17.20;99.90
14531;DHT22;7352;50.866;4.366;2022-09-09T03:20:02;17.20;99.90
14531;DHT22;7352;50.866;4.366;2022-09-09T03:22:29;17.10;99.90
14531;DHT22;7352;50.866;4.366;2022-09-09T03:24:56;17.20;99.90
14531;DHT22;7352;50.866;4.366;2022-09-09T03:27:23;17.40;99.90
14531;DHT22;7352;50.866;4.366;2022-09-09T03:29:50;17.40;99.90
14531;DHT22;7352;50.866;4.366;2022-09-09T03:32:18;17.40;99.90
14531;DHT22;7352;50.866;4.366;2022-09-09T03:34:49;17.30;99.90
14531;DHT22;7352;50.866;4.366;2022-09-09T03:37:17;17.40;99.90
14531;DHT22;7352;50.866;4.366;2022-09-09T03:39:45;17.40;99.90
14531;DHT22;7352;50.866;4.366;2022-09-09T03:42:17;17.50;99.90
14531;DHT22;7352;50.866;4.366;2022-09-09T03:44:45;17.40;99.90
14531;DHT22;7352;50.866;4.366;2022-09-09T03:47:16;17.40;99.90
14531;DHT22;7352;50.866;4.366;2022-09-09T03:49:43;17.40;99.90
14531;DHT22;7352;50.866;4.366;2022-09-09T03:52:12;17.50;99.90
14531;DHT22;7352;50.866;4.366;2022-09-09T03:54:39;17.50;99.90
14531;DHT22;7352;50.866;4.366;2022-09-09T03:57:08;17.40;99.90
14531;DHT22;7352;50.866;4.366;2022-09-09T03:59:35;17.40;99.90
14531;DHT22;7352;50.866;4.366;2022-09-09T04:02:03;17.40;99.90
14531;DHT22;7352;50.866;4.366;2022-09-09T04:04:30;17.50;99.90
14531;DHT22;7352;50.866;4.366;2022-09-09T04:06:56;17.40;99.90
14531;DHT22;7352;50.866;4.366;2022-09-09T04:09:25;17.40;99.90
14531;DHT22;7352;50.866;4.366;2022-09-09T04:11:52;17.40;99.90
14531;DHT22;7352;50.866;4.366;2022-09-09T04:14:20;17.40;99.90
14531;DHT22;7352;50.866;4.366;2022-09-09T04:16:47;17.40;99.90
14531;DHT22;7352;50.866;4.366;2022-09-09T04:19:14;17.60;99.90
14531;DHT22;7352;50.866;4.366;2022-09-09T04:21:42;17.50;99.90
14531;DHT22;7352;50.866;4.366;2022-09-09T04:24:09;17.50;99.90
14531;DHT22;7352;50.866;4.366;2022-09-09T04:26:38;17.50;99.90
14531;DHT22;7352;50.866;4.366;2022-09-09T04:29:05;17.50;99.90
14531;DHT22;7352;50.866;4.366;2022-09-09T04:31:34;17.40;99.90
14531;DHT22;7352;50.866;4.366;2022-09-09T04:34:01;17.40;99.90
14531;DHT22;7352;50.866;4.366;2022-09-09T04:36:31;17.30;99.90
14531;DHT22;7352;50.866;4.366;2022-09-09T04:38:59;17.30;99.90
14531;DHT22;7352;50.866;4.366;2022-09-09T04:41:27;17.20;99.90
14531;DHT22;7352;50.866;4.366;2022-09-09T04:43:58;17.20;99.90
14531;DHT22;7352;50.866;4.366;2022-09-09T04:46:26;17.20;99.90
14531;DHT22;7352;50.866;4.366;2022-09-09T04:48:53;17.10;99.90
14531;DHT22;7352;50.866;4.366;2022-09-09T04:51:20;17.10;99.90
14531;DHT22;7352;50.866;4.366;2022-09-09T04:53:47;17.10;99.90
14531;DHT22;7352;50.866;4.366;2022-09-09T04:56:17;17.10;99.90
14531;DHT22;7352;50.866;4.366;2022-09-09T04:58:44;17.10;99.90
14531;DHT22;7352;50.866;4.366;2022-09-09T05:01:15;17.10;99.90
14531;DHT22;7352;50.866;4.366;2022-09-09T05:03:43;17.10;99.90
14531;DHT22;7352;50.866;4.366;2022-09-09T05:06:12;17.00;99.90
14531;DHT22;7352;50.866;4.366;2022-09-09T05:08:41;17.00;99.90
14531;DHT22;7352;50.866;4.366;2022-09-09T05:11:18;17.00;99.90
14531;DHT22;7352;50.866;4.366;2022-09-09T05:13:49;17.10;99.90
14531;DHT22;7352;50.866;4.366;2022-09-09T05:16:25;17.10;99.90
14531;DHT22;7352;50.866;4.366;2022-09-09T05:18:52;17.20;99.90
14531;DHT22;7352;50.866;4.366;2022-09-09T05:21:21;17.20;99.90
14531;DHT22;7352;50.866;4.366;2022-09-09T05:23:50;17.30;99.90
14531;DHT22;7352;50.866;4.366;2022-09-09T05:26:20;17.30;99.90
14531;DHT22;7352;50.866;4.366;2022-09-09T05:28:47;17.30;99.90
14531;DHT22;7352;50.866;4.366;2022-09-09T05:31:15;17.30;99.90
14531;DHT22;7352;50.866;4.366;2022-09-09T05:33:46;17.50;99.90
14531;DHT22;7352;50.866;4.366;2022-09-09T05:36:14;17.60;99.90
14531;DHT22;7352;50.866;4.366;2022-09-09T05:38:42;17.50;99.90
14531;DHT22;7352;50.866;4.366;2022-09-09T05:41:11;17.60;99.90
14531;DHT22;7352;50.866;4.366;2022-09-09T05:43:39;17.60;99.90
14531;DHT22;7352;50.866;4.366;2022-09-09T05:46:08;17.70;99.90
14531;DHT22;7352;50.866;4.366;2022-09-09T05:48:37;17.60;99.90
14531;DHT22;7352;50.866;4.366;2022-09-09T05:51:08;17.60;99.90
14531;DHT22;7352;50.866;4.366;2022-09-09T05:53:35;17.60;99.90
14531;DHT22;7352;50.866;4.366;2022-09-09T05:56:04;17.40;99.90
14531;DHT22;7352;50.866;4.366;2022-09-09T05:58:32;17.40;99.90
14531;DHT22;7352;50.866;4.366;2022-09-09T06:01:03;17.50;99.90
14531;DHT22;7352;50.866;4.366;2022-09-09T06:03:31;17.50;99.90
14531;DHT22;7352;50.866;4.366;2022-09-09T06:05:59;17.50;99.90
14531;DHT22;7352;50.866;4.366;2022-09-09T06:08:27;17.60;99.90
14531;DHT22;7352;50.866;4.366;2022-09-09T06:11:01;17.70;99.90
14531;DHT22;7352;50.866;4.366;2022-09-09T06:13:29;17.70;99.90
14531;DHT22;7352;50.866;4.366;2022-09-09T06:15:56;17.70;99.90
14531;DHT22;7352;50.866;4.366;2022-09-09T06:18:25;17.70;99.90
14531;DHT22;7352;50.866;4.366;2022-09-09T06:20:56;17.80;99.90
14531;DHT22;7352;50.866;4.366;2022-09-09T06:23:25;17.90;99.90
14531;DHT22;7352;50.866;4.366;2022-09-09T06:26:01;17.90;99.90
14531;DHT22;7352;50.866;4.366;2022-09-09T06:28:28;17.70;99.90
14531;DHT22;7352;50.866;4.366;2022-09-09T06:30:58;17.90;99.90
14531;DHT22;7352;50.866;4.366;2022-09-09T06:33:26;18.00;99.90
14531;DHT22;7352;50.866;4.366;2022-09-09T06:35:56;18.20;99.90
14531;DHT22;7352;50.866;4.366;2022-09-09T06:38:23;18.20;99.90
14531;DHT22;7352;50.866;4.366;2022-09-09T06:40:55;18.30;99.90
14531;DHT22;7352;50.866;4.366;2022-09-09T06:43:24;18.20;99.90
14531;DHT22;7352;50.866;4.366;2022-09-09T06:45:55;18.20;99.90
14531;DHT22;7352;50.866;4.366;2022-09-09T06:48:23;18.20;99.90
14531;DHT22;7352;50.866;4.366;2022-09-09T06:50:51;18.10;99.90
14531;DHT22;7352;50.866;4.366;2022-09-09T06:53:18;18.00;99.90
14531;DHT22;7352;50.866;4.366;2022-09-09T06:55:46;17.90;99.90
14531;DHT22;7352;50.866;4.366;2022-09-09T06:58:21;18.10;99.90
14531;DHT22;7352;50.866;4.366;2022-09-09T07:01:02;18.20;99.90
14531;DHT22;7352;50.866;4.366;2022-09-09T07:03:30;18.50;99.90
14531;DHT22;7352;50.866;4.366;2022-09-09T07:05:57;18.30;99.90
14531;DHT22;7352;50.866;4.366;2022-09-09T07:08:27;18.30;99.90
14531;DHT22;7352;50.866;4.366;2022-09-09T07:11:08;18.30;99.90
14531;DHT22;7352;50.866;4.366;2022-09-09T07:13:36;18.40;99.90
14531;DHT22;7352;50.866;4.366;2022-09-09T07:16:05;18.50;99.90
14531;DHT22;7352;50.866;4.366;2022-09-09T07:18:35;18.60;99.90
14531;DHT22;7352;50.866;4.366;2022-09-09T07:21:03;18.60;99.90
14531;DHT22;7352;50.866;4.366;2022-09-09T07:23:31;18.70;99.90
14531;DHT22;7352;50.866;4.366;2022-09-09T07:26:06;18.80;99.90
14531;DHT22;7352;50.866;4.366;2022-09-09T07:28:34;18.60;99.90
14531;DHT22;7352;50.866;4.366;2022-09-09T07:31:14;18.60;99.90
14531;DHT22;7352;50.866;4.366;2022-09-09T07:33:45;18.60;99.90
14531;DHT22;7352;50.866;4.366;2022-09-09T07:36:18;18.60;99.90
14531;DHT22;7352;50.866;4.366;2022-09-09T07:39:02;18.60;99.90
14531;DHT22;7352;50.866;4.366;2022-09-09T07:41:50;18.70;99.90
14531;DHT22;7352;50.866;4.366;2022-09-09T07:44:36;18.60;99.90
14531;DHT22;7352;50.866;4.366;2022-09-09T07:47:06;18.60;99.90
14531;DHT22;7352;50.866;4.366;2022-09-09T07:49:36;18.50;99.90
14531;DHT22;7352;50.866;4.366;2022-09-09T07:52:03;18.50;99.90
14531;DHT22;7352;50.866;4.366;2022-09-09T07:54:31;18.60;99.90
14531;DHT22;7352;50.866;4.366;2022-09-09T07:56:58;18.50;99.90
14531;DHT22;7352;50.866;4.366;2022-09-09T07:59:25;18.50;99.90
14531;DHT22;7352;50.866;4.366;2022-09-09T08:01:53;18.40;99.90
14531;DHT22;7352;50.866;4.366;2022-09-09T08:04:23;18.40;99.90
14531;DHT22;7352;50.866;4.366;2022-09-09T08:06:53;18.40;99.90
14531;DHT22;7352;50.866;4.366;2022-09-09T08:09:20;18.50;99.90
14531;DHT22;7352;50.866;4.366;2022-09-09T08:11:50;18.70;99.90
14531;DHT22;7352;50.866;4.366;2022-09-09T08:14:17;18.70;99.90
14531;DHT22;7352;50.866;4.366;2022-09-09T08:16:46;18.80;99.90
14531;DHT22;7352;50.866;4.366;2022-09-09T08:19:14;19.00;99.90
14531;DHT22;7352;50.866;4.366;2022-09-09T08:21:43;19.10;99.90
14531;DHT22;7352;50.866;4.366;2022-09-09T08:24:12;19.00;99.90
14531;DHT22;7352;50.866;4.366;2022-09-09T08:26:42;19.00;99.90
14531;DHT22;7352;50.866;4.366;2022-09-09T08:29:10;19.10;99.90
14531;DHT22;7352;50.866;4.366;2022-09-09T08:31:40;19.10;99.90
14531;DHT22;7352;50.866;4.366;2022-09-09T08:34:10;19.10;99.90
14531;DHT22;7352;50.866;4.366;2022-09-09T08:36:39;19.10;99.90
14531;DHT22;7352;50.866;4.366;2022-09-09T08:39:13;19.10;99.90
14531;DHT22;7352;50.866;4.366;2022-09-09T08:41:57;19.00;99.90
14531;DHT22;7352;50.866;4.366;2022-09-09T08:44:41;19.10;99.90
14531;DHT22;7352;50.866;4.366;2022-09-09T08:47:17;19.00;99.90
14531;DHT22;7352;50.866;4.366;2022-09-09T08:50:05;19.00;99.90
14531;DHT22;7352;50.866;4.366;2022-09-09T08:52:48;18.80;99.90
14531;DHT22;7352;50.866;4.366;2022-09-09T08:55:26;18.70;99.90
14531;DHT22;7352;50.866;4.366;2022-09-09T08:57:57;18.80;99.90
14531;DHT22;7352;50.866;4.366;2022-09-09T09:00:42;18.90;99.90
14531;DHT22;7352;50.866;4.366;2022-09-09T09:03:30;18.90;99.90
14531;DHT22;7352;50.866;4.366;2022-09-09T09:06:09;18.90;99.90
14531;DHT22;7352;50.866;4.366;2022-09-09T09:08:45;18.90;99.90
14531;DHT22;7352;50.866;4.366;2022-09-09T09:11:22;18.70;99.90
14531;DHT22;7352;50.866;4.366;2022-09-09T09:13:53;18.80;99.90
14531;DHT22;7352;50.866;4.366;2022-09-09T09:16:26;18.80;99.90
14531;DHT22;7352;50.866;4.366;2022-09-09T09:18:58;19.00;99.90
14531;DHT22;7352;50.866;4.366;2022-09-09T09:21:32;19.00;99.90
14531;DHT22;7352;50.866;4.366;2022-09-09T09:24:01;18.80;99.90
14531;DHT22;7352;50.866;4.366;2022-09-09T09:26:34;18.80;99.90
14531;DHT22;7352;50.866;4.366;2022-09-09T09:29:10;18.70;99.90
14531;DHT22;7352;50.866;4.366;2022-09-09T09:31:38;18.80;99.90
14531;DHT22;7352;50.866;4.366;2022-09-09T09:34:08;18.90;99.90
14531;DHT22;7352;50.866;4.366;2022-09-09T09:36:42;18.90;99.90
14531;DHT22;7352;50.866;4.366;2022-09-09T09:39:22;19.00;99.90
14531;DHT22;7352;50.866;4.366;2022-09-09T09:41:52;19.10;99.90
14531;DHT22;7352;50.866;4.366;2022-09-09T09:44:23;18.90;99.90
14531;DHT22;7352;50.866;4.366;2022-09-09T09:46:51;18.90;99.90
14531;DHT22;7352;50.866;4.366;2022-09-09T09:49:19;18.90;99.90
14531;DHT22;7352;50.866;4.366;2022-09-09T09:51:46;18.80;99.90
14531;DHT22;7352;50.866;4.366;2022-09-09T09:54:18;18.90;99.90
14531;DHT22;7352;50.866;4.366;2022-09-09T09:56:49;19.00;99.90
14531;DHT22;7352;50.866;4.366;2022-09-09T09:59:35;18.90;99.90
14531;DHT22;7352;50.866;4.366;2022-09-09T10:05:36;19.10;99.90
14531;DHT22;7352;50.866;4.366;2022-09-09T10:08:08;19.10;99.90
14531;DHT22;7352;50.866;4.366;2022-09-09T10:10:49;18.90;99.90
14531;DHT22;7352;50.866;4.366;2022-09-09T10:13:21;18.90;99.90
14531;DHT22;7352;50.866;4.366;2022-09-09T10:16:04;18.90;99.90
14531;DHT22;7352;50.866;4.366;2022-09-09T10:18:43;19.00;99.90
14531;DHT22;7352;50.866;4.366;2022-09-09T10:21:20;19.20;99.90
14531;DHT22;7352;50.866;4.366;2022-09-09T10:24:07;19.30;99.90
14531;DHT22;7352;50.866;4.366;2022-09-09T10:26:46;19.30;99.90
14531;DHT22;7352;50.866;4.366;2022-09-09T10:29:26;19.40;99.90
14531;DHT22;7352;50.866;4.366;2022-09-09T10:32:11;19.50;99.90
14531;DHT22;7352;50.866;4.366;2022-09-09T10:34:56;19.80;99.90
14531;DHT22;7352;50.866;4.366;2022-09-09T10:37:40;20.00;99.90
14531;DHT22;7352;50.866;4.366;2022-09-09T10:40:25;20.10;99.90
14531;DHT22;7352;50.866;4.366;2022-09-09T10:43:01;20.20;99.90
14531;DHT22;7352;50.866;4.366;2022-09-09T10:45:38;20.30;99.90
14531;DHT22;7352;50.866;4.366;2022-09-09T10:48:22;20.50;99.90
14531;DHT22;7352;50.866;4.366;2022-09-09T10:50:56;20.60;99.90
14531;DHT22;7352;50.866;4.366;2022-09-09T10:53:35;20.50;99.90
14531;DHT22;7352;50.866;4.366;2022-09-09T10:56:07;20.30;99.90
14531;DHT22;7352;50.866;4.366;2022-09-09T10:58:42;20.30;99.90
14531;DHT22;7352;50.866;4.366;2022-09-09T11:01:17;20.40;99.90
14531;DHT22;7352;50.866;4.366;2022-09-09T11:03:53;20.40;99.90
14531;DHT22;7352;50.866;4.366;2022-09-09T11:06:35;20.30;99.90
14531;DHT22;7352;50.866;4.366;2022-09-09T11:09:05;20.10;99.90
14531;DHT22;7352;50.866;4.366;2022-09-09T11:11:37;20.00;99.90
14531;DHT22;7352;50.866;4.366;2022-09-09T11:14:12;20.10;99.90
14531;DHT22;7352;50.866;4.366;2022-09-09T11:16:45;20.30;99.90
14531;DHT22;7352;50.866;4.366;2022-09-09T11:19:21;20.20;99.90
14531;DHT22;7352;50.866;4.366;2022-09-09T11:22:01;20.10;99.90
14531;DHT22;7352;50.866;4.366;2022-09-09T11:24:33;20.10;99.90
14531;DHT22;7352;50.866;4.366;2022-09-09T11:27:08;20.20;99.90
14531;DHT22;7352;50.866;4.366;2022-09-09T11:30:12;20.30;99.90
14531;DHT22;7352;50.866;4.366;2022-09-09T11:33:07;20.40;99.90
14531;DHT22;7352;50.866;4.366;2022-09-09T11:35:47;20.40;99.90
14531;DHT22;7352;50.866;4.366;2022-09-09T11:38:26;20.30;99.90
14531;DHT22;7352;50.866;4.366;2022-09-09T11:41:01;20.20;99.90
14531;DHT22;7352;50.866;4.366;2022-09-09T11:43:31;20.20;99.90
14531;DHT22;7352;50.866;4.366;2022-09-09T11:46:01;20.30;99.90
14531;DHT22;7352;50.866;4.366;2022-09-09T11:48:34;20.30;99.90
14531;DHT22;7352;50.866;4.366;2022-09-09T11:51:06;20.40;99.90
14531;DHT22;7352;50.866;4.366;2022-09-09T11:53:47;20.30;99.90
14531;DHT22;7352;50.866;4.366;2022-09-09T11:56:27;20.30;99.90
14531;DHT22;7352;50.866;4.366;2022-09-09T11:58:58;20.20;99.90
14531;DHT22;7352;50.866;4.366;2022-09-09T12:01:44;20.30;99.90
14531;DHT22;7352;50.866;4.366;2022-09-09T12:07:04;20.40;99.90
14531;DHT22;7352;50.866;4.366;2022-09-09T12:09:49;20.50;99.90
14531;DHT22;7352;50.866;4.366;2022-09-09T12:12:28;20.40;99.90
14531;DHT22;7352;50.866;4.366;2022-09-09T12:17:51;20.40;99.90
14531;DHT22;7352;50.866;4.366;2022-09-09T12:20:20;20.50;99.90
14531;DHT22;7352;50.866;4.366;2022-09-09T12:25:58;20.20;99.90
14531;DHT22;7352;50.866;4.366;2022-09-09T12:28:41;20.20;99.90
14531;DHT22;7352;50.866;4.366;2022-09-09T12:31:12;20.40;99.90
14531;DHT22;7352;50.866;4.366;2022-09-09T12:33:44;20.40;99.90
14531;DHT22;7352;50.866;4.366;2022-09-09T12:36:15;20.50;99.90
14531;DHT22;7352;50.866;4.366;2022-09-09T12:38:46;20.40;99.90
14531;DHT22;7352;50.866;4.366;2022-09-09T12:41:22;20.40;99.90
14531;DHT22;7352;50.866;4.366;2022-09-09T12:43:50;20.30;99.90
14531;DHT22;7352;50.866;4.366;2022-09-09T12:46:24;20.40;99.90
14531;DHT22;7352;50.866;4.366;2022-09-09T12:48:54;20.50;99.90
14531;DHT22;7352;50.866;4.366;2022-09-09T12:51:26;20.70;99.90
14531;DHT22;7352;50.866;4.366;2022-09-09T12:53:56;20.90;99.90
14531;DHT22;7352;50.866;4.366;2022-09-09T12:56:26;21.30;99.90
14531;DHT22;7352;50.866;4.366;2022-09-09T12:58:55;21.40;99.90
14531;DHT22;7352;50.866;4.366;2022-09-09T13:01:24;21.30;99.90
14531;DHT22;7352;50.866;4.366;2022-09-09T13:03:52;21.40;99.90
14531;DHT22;7352;50.866;4.366;2022-09-09T13:06:22;21.50;99.90
14531;DHT22;7352;50.866;4.366;2022-09-09T13:08:50;21.50;99.90
14531;DHT22;7352;50.866;4.366;2022-09-09T13:11:22;21.50;99.90
14531;DHT22;7352;50.866;4.366;2022-09-09T13:13:57;21.70;99.90
14531;DHT22;7352;50.866;4.366;2022-09-09T13:16:26;21.50;99.90
14531;DHT22;7352;50.866;4.366;2022-09-09T13:18:57;21.40;99.90
14531;DHT22;7352;50.866;4.366;2022-09-09T13:21:33;21.50;99.90
14531;DHT22;7352;50.866;4.366;2022-09-09T13:24:01;21.50;99.90
14531;DHT22;7352;50.866;4.366;2022-09-09T13:26:31;21.30;99.90
14531;DHT22;7352;50.866;4.366;2022-09-09T13:29:09;21.30;99.90
14531;DHT22;7352;50.866;4.366;2022-09-09T13:32:03;21.40;99.90
14531;DHT22;7352;50.866;4.366;2022-09-09T13:34:33;21.50;99.90
14531;DHT22;7352;50.866;4.366;2022-09-09T13:37:03;21.50;99.90
14531;DHT22;7352;50.866;4.366;2022-09-09T13:39:32;21.70;99.90
14531;DHT22;7352;50.866;4.366;2022-09-09T13:42:03;21.70;99.90
14531;DHT22;7352;50.866;4.366;2022-09-09T13:44:36;21.70;99.90
14531;DHT22;7352;50.866;4.366;2022-09-09T13:47:05;21.50;99.90
14531;DHT22;7352;50.866;4.366;2022-09-09T13:49:33;21.80;99.90
14531;DHT22;7352;50.866;4.366;2022-09-09T13:52:05;22.20;99.90
14531;DHT22;7352;50.866;4.366;2022-09-09T13:54:33;22.50;99.90
14531;DHT22;7352;50.866;4.366;2022-09-09T13:57:20;22.60;99.90
14531;DHT22;7352;50.866;4.366;2022-09-09T13:59:48;22.60;99.90
14531;DHT22;7352;50.866;4.366;2022-09-09T14:02:15;22.20;99.90
14531;DHT22;7352;50.866;4.366;2022-09-09T14:04:43;22.00;99.90
14531;DHT22;7352;50.866;4.366;2022-09-09T14:07:12;22.20;99.90
14531;DHT22;7352;50.866;4.366;2022-09-09T14:09:40;22.40;99.90
14531;DHT22;7352;50.866;4.366;2022-09-09T14:12:09;22.50;99.90
14531;DHT22;7352;50.866;4.366;2022-09-09T14:14:38;22.50;99.90
14531;DHT22;7352;50.866;4.366;2022-09-09T14:17:10;22.50;99.90
14531;DHT22;7352;50.866;4.366;2022-09-09T14:19:38;22.60;99.90
14531;DHT22;7352;50.866;4.366;2022-09-09T14:22:05;22.70;99.90
14531;DHT22;7352;50.866;4.366;2022-09-09T14:24:32;22.60;99.90
14531;DHT22;7352;50.866;4.366;2022-09-09T14:26:59;22.30;99.90
14531;DHT22;7352;50.866;4.366;2022-09-09T14:29:26;22.40;99.90
14531;DHT22;7352;50.866;4.366;2022-09-09T14:31:55;22.40;99.90
14531;DHT22;7352;50.866;4.366;2022-09-09T14:34:22;22.30;99.90
14531;DHT22;7352;50.866;4.366;2022-09-09T14:36:49;22.30;99.90
14531;DHT22;7352;50.866;4.366;2022-09-09T14:39:16;22.50;99.90
14531;DHT22;7352;50.866;4.366;2022-09-09T14:41:44;22.70;99.90
14531;DHT22;7352;50.866;4.366;2022-09-09T14:44:11;22.50;99.90
14531;DHT22;7352;50.866;4.366;2022-09-09T14:46:38;22.60;99.90
14531;DHT22;7352;50.866;4.366;2022-09-09T14:49:06;22.80;99.90
14531;DHT22;7352;50.866;4.366;2022-09-09T14:51:33;22.80;99.90
14531;DHT22;7352;50.866;4.366;2022-09-09T14:54:00;22.90;99.90
14531;DHT22;7352;50.866;4.366;2022-09-09T14:56:29;22.90;99.90
14531;DHT22;7352;50.866;4.366;2022-09-09T14:58:58;23.10;99.90
14531;DHT22;7352;50.866;4.366;2022-09-09T15:01:26;23.20;99.90
14531;DHT22;7352;50.866;4.366;2022-09-09T15:03:55;23.00;99.90
14531;DHT22;7352;50.866;4.366;2022-09-09T15:06:26;23.30;99.90
14531;DHT22;7352;50.866;4.366;2022-09-09T15:08:55;23.40;99.90
14531;DHT22;7352;50.866;4.366;2022-09-09T15:11:24;23.40;99.90
14531;DHT22;7352;50.866;4.366;2022-09-09T15:13:53;23.30;99.90
14531;DHT22;7352;50.866;4.366;2022-09-09T15:16:24;23.10;99.90
14531;DHT22;7352;50.866;4.366;2022-09-09T15:18:52;23.00;99.90
14531;DHT22;7352;50.866;4.366;2022-09-09T15:21:22;22.70;99.90
14531;DHT22;7352;50.866;4.366;2022-09-09T15:23:52;22.80;99.90
14531;DHT22;7352;50.866;4.366;2022-09-09T15:26:19;22.80;99.90
14531;DHT22;7352;50.866;4.366;2022-09-09T15:28:47;22.70;99.90
14531;DHT22;7352;50.866;4.366;2022-09-09T15:31:16;22.70;99.90
14531;DHT22;7352;50.866;4.366;2022-09-09T15:33:47;22.50;99.90
14531;DHT22;7352;50.866;4.366;2022-09-09T15:36:15;22.50;99.90
14531;DHT22;7352;50.866;4.366;2022-09-09T15:38:43;22.30;99.90
14531;DHT22;7352;50.866;4.366;2022-09-09T15:41:17;22.30;99.90
14531;DHT22;7352;50.866;4.366;2022-09-09T15:43:45;22.30;99.90
14531;DHT22;7352;50.866;4.366;2022-09-09T15:46:28;22.40;99.90
14531;DHT22;7352;50.866;4.366;2022-09-09T15:48:58;22.80;99.90
14531;DHT22;7352;50.866;4.366;2022-09-09T15:51:25;23.00;99.90
14531;DHT22;7352;50.866;4.366;2022-09-09T15:53:57;22.90;99.90
14531;DHT22;7352;50.866;4.366;2022-09-09T15:56:28;22.60;99.90
14531;DHT22;7352;50.866;4.366;2022-09-09T15:58:56;22.60;99.90
14531;DHT22;7352;50.866;4.366;2022-09-09T16:01:25;22.60;99.90
14531;DHT22;7352;50.866;4.366;2022-09-09T16:03:53;22.60;99.90
14531;DHT22;7352;50.866;4.366;2022-09-09T16:06:21;22.70;99.90
14531;DHT22;7352;50.866;4.366;2022-09-09T16:08:50;22.80;99.90
14531;DHT22;7352;50.866;4.366;2022-09-09T16:11:20;22.80;99.90
14531;DHT22;7352;50.866;4.366;2022-09-09T16:13:51;22.80;99.90
14531;DHT22;7352;50.866;4.366;2022-09-09T16:16:20;22.70;99.90
14531;DHT22;7352;50.866;4.366;2022-09-09T16:18:50;22.50;99.90
14531;DHT22;7352;50.866;4.366;2022-09-09T16:21:20;22.20;99.90
14531;DHT22;7352;50.866;4.366;2022-09-09T16:23:49;22.10;99.90
14531;DHT22;7352;50.866;4.366;2022-09-09T16:26:18;22.10;99.90
14531;DHT22;7352;50.866;4.366;2022-09-09T16:28:45;22.00;99.90
14531;DHT22;7352;50.866;4.366;2022-09-09T16:31:16;21.90;99.90